Time;durP1;ratioP1;P1;durP2;ratioP2;P2;SDS_P1;SDS_P2;PMS_P1;PMS_P2;Temp;Humidity;BMP_temperature;BMP_pressure;BME280_temperature;BME280_humidity;BME280_pressure;Samples;Min_cycle;Max_cycle;Signal;HPM_P1;HPM_P2
2022/03/15 00:00:35;;;;;;;24.70;23.00;;;6.90;79.00;;;;;;5092439;28;20201;-72
2022/03/15 00:03:02;;;;;;;26.17;24.58;;;6.90;78.90;;;;;;5094632;28;20306;-72
2022/03/15 00:05:29;;;;;;;25.92;24.15;;;7.10;78.30;;;;;;5096892;28;20225;-72
2022/03/15 00:07:56;;;;;;;24.65;23.10;;;7.10;77.90;;;;;;5096707;28;20590;-72
2022/03/15 00:10:23;;;;;;;25.38;23.55;;;7.00;78.40;;;;;;5096678;28;20199;-72
2022/03/15 00:12:51;;;;;;;25.38;23.70;;;6.90;78.90;;;;;;5096837;28;20648;-72
2022/03/15 00:15:20;;;;;;;24.25;22.23;;;6.80;79.30;;;;;;5096709;28;20194;-72
2022/03/15 00:17:47;;;;;;;23.92;22.40;;;6.80;79.40;;;;;;5096831;28;20286;-72
2022/03/15 00:20:17;;;;;;;25.80;24.05;;;6.90;79.40;;;;;;5096423;28;20237;-72
2022/03/15 00:22:45;;;;;;;24.50;23.02;;;6.90;79.40;;;;;;5096591;28;20306;-72
2022/03/15 00:25:16;;;;;;;25.10;23.60;;;6.90;79.40;;;;;;5096573;28;20270;-72
2022/03/15 00:27:44;;;;;;;25.55;23.35;;;6.90;79.40;;;;;;5096741;28;20259;-72
2022/03/15 00:30:11;;;;;;;24.95;23.30;;;6.90;79.10;;;;;;5096283;28;20199;-72
2022/03/15 00:32:39;;;;;;;25.33;23.42;;;6.90;79.40;;;;;;5096421;28;20399;-72
2022/03/15 00:35:11;;;;;;;24.17;22.55;;;6.80;79.60;;;;;;5096375;28;20198;-72
2022/03/15 00:37:38;;;;;;;24.23;22.65;;;6.80;79.90;;;;;;5096350;28;20207;-72
2022/03/15 00:40:06;;;;;;;24.70;22.90;;;6.90;79.80;;;;;;5096126;28;20221;-72
2022/03/15 00:42:32;;;;;;;23.70;22.30;;;6.90;79.60;;;;;;5096230;28;20221;-72
2022/03/15 00:45:02;;;;;;;24.05;22.33;;;7.10;78.90;;;;;;5096210;28;20229;-72
2022/03/15 00:47:29;;;;;;;23.40;21.90;;;7.00;78.80;;;;;;5095985;28;20246;-72
2022/03/15 00:49:57;;;;;;;23.67;22.10;;;7.00;79.10;;;;;;5095840;28;20199;-72
2022/03/15 00:52:24;;;;;;;23.75;22.15;;;7.00;79.10;;;;;;5095904;28;20215;-72
2022/03/15 00:54:51;;;;;;;23.90;22.30;;;6.90;79.50;;;;;;5096048;28;20191;-72
2022/03/15 00:57:18;;;;;;;25.00;23.20;;;6.90;79.70;;;;;;5095917;28;20219;-72
2022/03/15 00:59:45;;;;;;;23.92;22.38;;;6.90;79.80;;;;;;5095758;28;20203;-70
2022/03/15 01:02:12;;;;;;;24.25;22.80;;;6.90;79.80;;;;;;5095734;28;20310;-71
2022/03/15 01:04:39;;;;;;;23.50;21.80;;;6.90;79.90;;;;;;5095710;28;20236;-71
2022/03/15 01:07:08;;;;;;;24.40;22.80;;;7.00;79.40;;;;;;5095600;28;20209;-71
2022/03/15 01:09:35;;;;;;;23.15;21.77;;;7.10;79.10;;;;;;5095465;28;20538;-71
2022/03/15 01:12:02;;;;;;;24.33;22.45;;;7.20;78.50;;;;;;5095619;28;20302;-71
2022/03/15 01:14:29;;;;;;;23.95;22.42;;;7.10;78.70;;;;;;5095088;28;20250;-71
2022/03/15 01:16:57;;;;;;;24.35;22.73;;;7.00;79.20;;;;;;5095888;28;20215;-71
2022/03/15 01:19:24;;;;;;;24.25;22.65;;;6.90;79.70;;;;;;5095441;28;20207;-71
2022/03/15 01:21:52;;;;;;;24.15;22.33;;;6.90;80.00;;;;;;5095521;28;20213;-71
2022/03/15 01:24:21;;;;;;;23.05;21.63;;;6.80;80.10;;;;;;5095272;28;20336;-71
2022/03/15 01:26:49;;;;;;;24.25;22.42;;;6.70;80.20;;;;;;5095276;28;20657;-71
2022/03/15 01:29:18;;;;;;;24.50;22.75;;;6.90;79.80;;;;;;5095146;28;20198;-71
2022/03/15 01:31:45;;;;;;;23.38;21.98;;;6.90;79.70;;;;;;5095285;28;20701;-70
2022/03/15 01:34:12;;;;;;;24.60;23.10;;;6.80;80.00;;;;;;5095130;28;20199;-71
2022/03/15 01:36:39;;;;;;;23.77;22.10;;;6.80;80.20;;;;;;5095282;28;20230;-71
2022/03/15 01:39:07;;;;;;;24.58;22.98;;;6.80;80.30;;;;;;5095035;28;20198;-71
2022/03/15 01:41:38;;;;;;;24.90;23.25;;;6.80;80.40;;;;;;5095097;28;20243;-71
2022/03/15 01:44:13;;;;;;;24.58;23.08;;;6.80;80.40;;;;;;5095053;28;20770;-71
2022/03/15 01:46:40;;;;;;;24.40;22.80;;;6.80;80.20;;;;;;5094977;28;20194;-71
2022/03/15 01:49:07;;;;;;;23.00;21.60;;;6.90;79.90;;;;;;5094809;28;20199;-71
2022/03/15 01:51:35;;;;;;;24.38;22.88;;;6.90;79.50;;;;;;5094672;28;20254;-70
2022/03/15 01:54:03;;;;;;;24.80;23.30;;;6.70;80.00;;;;;;5094884;28;20209;-70
2022/03/15 01:56:29;;;;;;;25.27;23.58;;;6.70;80.40;;;;;;5094946;28;20287;-71
2022/03/15 01:58:58;;;;;;;24.50;22.88;;;6.70;80.60;;;;;;5094677;28;20203;-71
2022/03/15 02:01:25;;;;;;;24.48;22.88;;;6.90;80.30;;;;;;5094557;28;21636;-71
2022/03/15 02:03:51;;;;;;;24.20;22.70;;;6.70;80.20;;;;;;5094574;28;20291;-71
2022/03/15 02:06:18;;;;;;;25.15;23.13;;;6.70;80.50;;;;;;5094247;28;20204;-71
2022/03/15 02:08:45;;;;;;;23.90;22.40;;;6.60;80.50;;;;;;5094646;28;20236;-71
2022/03/15 02:11:13;;;;;;;24.17;22.52;;;6.60;81.00;;;;;;5094355;28;20200;-71
2022/03/15 02:13:40;;;;;;;23.90;22.20;;;6.70;81.00;;;;;;5094497;28;20707;-71
2022/03/15 02:16:09;;;;;;;24.30;22.80;;;6.70;80.80;;;;;;5094371;28;20219;-71
2022/03/15 02:18:36;;;;;;;24.38;22.63;;;6.70;80.60;;;;;;5094275;28;20203;-70
2022/03/15 02:21:04;;;;;;;24.55;22.58;;;6.70;80.60;;;;;;5094217;28;20204;-71
2022/03/15 02:23:31;;;;;;;23.85;22.45;;;6.90;80.10;;;;;;5094491;28;20260;-71
2022/03/15 02:25:57;;;;;;;23.23;21.90;;;6.90;79.40;;;;;;5093258;28;20314;-70
2022/03/15 02:28:24;;;;;;;24.23;22.10;;;6.90;79.60;;;;;;5094091;28;20201;-71
2022/03/15 02:30:51;;;;;;;23.77;22.33;;;6.80;80.00;;;;;;5094009;28;20208;-71
2022/03/15 02:33:18;;;;;;;24.13;22.73;;;6.70;80.30;;;;;;5094098;28;20215;-71
2022/03/15 02:35:45;;;;;;;23.30;21.90;;;6.70;80.80;;;;;;5094069;28;20191;-71
2022/03/15 02:38:14;;;;;;;23.50;22.00;;;6.70;80.50;;;;;;5093918;28;20203;-71
2022/03/15 02:40:41;;;;;;;23.67;22.17;;;6.80;80.40;;;;;;5093778;28;20200;-71
2022/03/15 02:43:08;;;;;;;23.73;21.95;;;6.80;80.20;;;;;;5093723;28;20696;-71
2022/03/15 02:45:35;;;;;;;23.70;22.30;;;6.90;80.00;;;;;;5093714;28;20307;-71
2022/03/15 02:48:02;;;;;;;23.63;22.23;;;6.80;80.10;;;;;;5093453;28;20676;-71
2022/03/15 02:50:29;;;;;;;24.00;22.60;;;6.70;80.40;;;;;;5093563;28;20286;-71
2022/03/15 02:52:56;;;;;;;23.65;22.25;;;6.60;81.00;;;;;;5093627;28;20230;-71
2022/03/15 02:55:25;;;;;;;22.27;20.98;;;6.70;80.60;;;;;;5093675;28;20669;-71
2022/03/15 02:57:52;;;;;;;23.70;22.27;;;6.80;80.10;;;;;;5093646;28;20195;-71
2022/03/15 03:00:20;;;;;;;23.73;22.00;;;6.70;80.30;;;;;;5093397;28;20203;-71
2022/03/15 03:02:47;;;;;;;23.17;21.73;;;6.80;80.40;;;;;;5093459;28;20215;-71
2022/03/15 03:05:14;;;;;;;24.08;22.58;;;6.80;80.20;;;;;;5093502;28;20220;-71
2022/03/15 03:07:41;;;;;;;23.92;22.23;;;6.80;80.20;;;;;;5093083;28;20299;-71
2022/03/15 03:10:08;;;;;;;24.80;23.10;;;6.70;80.40;;;;;;5093171;28;20653;-71
2022/03/15 03:12:37;;;;;;;23.40;21.95;;;6.70;80.60;;;;;;5093107;28;20233;-71
2022/03/15 03:15:09;;;;;;;24.17;22.55;;;6.60;80.80;;;;;;5093322;28;20566;-71
2022/03/15 03:17:40;;;;;;;23.60;22.15;;;6.60;81.10;;;;;;5093311;28;20565;-71
2022/03/15 03:20:09;;;;;;;24.02;22.63;;;6.60;80.90;;;;;;5093195;28;20218;-71
2022/03/15 03:22:37;;;;;;;24.98;23.02;;;6.80;80.30;;;;;;5093226;28;20261;-71
2022/03/15 03:25:05;;;;;;;24.13;22.67;;;6.70;80.80;;;;;;5092946;28;20219;-71
2022/03/15 03:27:32;;;;;;;24.10;22.50;;;6.60;81.20;;;;;;5093201;28;20209;-71
2022/03/15 03:30:00;;;;;;;23.73;22.10;;;6.60;81.40;;;;;;5093053;28;20202;-71
2022/03/15 03:32:28;;;;;;;24.52;23.02;;;6.60;81.60;;;;;;5093153;28;20251;-71
2022/03/15 03:34:56;;;;;;;26.50;24.85;;;6.70;81.00;;;;;;5093141;28;20230;-71
2022/03/15 03:37:24;;;;;;;23.92;22.17;;;6.70;80.80;;;;;;5092737;28;20198;-71
2022/03/15 03:39:51;;;;;;;24.45;22.60;;;6.80;80.50;;;;;;5092796;28;20214;-71
2022/03/15 03:42:19;;;;;;;25.10;23.48;;;6.90;79.80;;;;;;5093033;28;20253;-71
2022/03/15 03:44:46;;;;;;;24.05;22.65;;;6.90;79.90;;;;;;5092841;28;20251;-71
2022/03/15 03:47:15;;;;;;;24.75;22.90;;;6.80;80.60;;;;;;5092681;28;20286;-71
2022/03/15 03:49:42;;;;;;;25.42;23.63;;;6.70;81.20;;;;;;5092640;28;20199;-71
2022/03/15 03:52:12;;;;;;;25.48;23.98;;;6.70;81.40;;;;;;5092763;28;20223;-71
2022/03/15 03:54:39;;;;;;;26.73;24.95;;;6.70;81.80;;;;;;5092741;28;20229;-71
2022/03/15 03:57:06;;;;;;;23.75;22.13;;;6.80;81.10;;;;;;5093017;28;20207;-71
2022/03/15 03:59:33;;;;;;;23.95;22.35;;;6.80;80.50;;;;;;5092665;28;20626;-71
2022/03/15 04:02:00;;;;;;;24.02;22.50;;;6.80;80.50;;;;;;5092712;28;20220;-71
2022/03/15 04:04:29;;;;;;;23.85;22.52;;;6.70;81.10;;;;;;5092542;28;20202;-71
2022/03/15 04:06:57;;;;;;;24.05;22.55;;;6.80;81.00;;;;;;5092545;28;20215;-71
2022/03/15 04:09:24;;;;;;;24.85;23.20;;;6.60;81.10;;;;;;5092418;28;20290;-71
2022/03/15 04:11:50;;;;;;;25.20;23.52;;;6.70;81.10;;;;;;5092746;28;20708;-71
2022/03/15 04:14:17;;;;;;;27.00;25.35;;;6.70;81.00;;;;;;5092498;28;20202;-71
2022/03/15 04:16:44;;;;;;;24.85;23.15;;;6.60;81.30;;;;;;5092684;28;20202;-71
2022/03/15 04:19:11;;;;;;;24.30;22.55;;;6.60;81.40;;;;;;5092458;28;20653;-71
2022/03/15 04:21:39;;;;;;;24.75;23.30;;;6.60;81.70;;;;;;5092501;28;20349;-71
2022/03/15 04:24:07;;;;;;;24.65;23.13;;;6.60;81.70;;;;;;5092655;28;20208;-71
2022/03/15 04:26:34;;;;;;;24.13;22.50;;;6.70;81.60;;;;;;5092412;28;20211;-71
2022/03/15 04:29:00;;;;;;;24.67;23.08;;;6.70;81.20;;;;;;5092533;28;20198;-71
2022/03/15 04:31:27;;;;;;;25.02;23.13;;;6.70;80.90;;;;;;5092458;28;20226;-71
2022/03/15 04:33:54;;;;;;;24.92;23.20;;;6.70;81.00;;;;;;5092936;28;20206;-71
2022/03/15 04:36:21;;;;;;;24.15;22.45;;;6.70;81.20;;;;;;5093266;28;20731;-71
2022/03/15 04:38:49;;;;;;;24.88;22.95;;;6.50;81.60;;;;;;5093380;28;20199;-71
2022/03/15 04:41:16;;;;;;;25.23;23.50;;;6.50;81.90;;;;;;5092194;28;20209;-71
2022/03/15 04:43:43;;;;;;;24.75;23.05;;;6.50;81.90;;;;;;5093322;28;20198;-71
2022/03/15 04:46:11;;;;;;;25.77;23.98;;;6.50;81.90;;;;;;5093316;28;20273;-71
2022/03/15 04:48:39;;;;;;;25.40;23.80;;;6.50;81.90;;;;;;5094493;28;20274;-71
2022/03/15 04:51:07;;;;;;;24.25;22.85;;;6.50;81.90;;;;;;5096489;28;20199;-71
2022/03/15 04:53:35;;;;;;;24.60;23.10;;;6.60;81.70;;;;;;5096048;28;20668;-71
2022/03/15 04:56:04;;;;;;;23.80;22.40;;;6.60;81.30;;;;;;5096038;28;20256;-71
2022/03/15 04:58:31;;;;;;;24.55;22.85;;;6.70;81.10;;;;;;5095874;28;20653;-71
2022/03/15 05:00:58;;;;;;;26.83;24.92;;;6.60;81.20;;;;;;5095745;28;20285;-71
2022/03/15 05:03:25;;;;;;;25.27;23.58;;;6.60;81.60;;;;;;5095896;28;20223;-71
2022/03/15 05:05:52;;;;;;;26.70;24.98;;;6.60;81.60;;;;;;5095728;28;20224;-70
2022/03/15 05:08:19;;;;;;;24.23;22.83;;;6.70;81.80;;;;;;5095696;28;20211;-71
2022/03/15 05:13:32;;;;;;;24.10;22.60;;;6.60;81.60;;;;;;5095746;28;20226;-71
2022/03/15 05:15:59;;;;;;;24.40;22.75;;;6.60;81.80;;;;;;5095423;28;20657;-71
2022/03/15 05:18:26;;;;;;;24.33;22.75;;;6.50;82.10;;;;;;5095315;28;20202;-71
2022/03/15 05:20:52;;;;;;;24.70;23.08;;;6.50;82.10;;;;;;5095558;28;20612;-70
2022/03/15 05:23:19;;;;;;;26.52;24.42;;;6.50;82.20;;;;;;5095462;28;20262;-71
2022/03/15 05:25:46;;;;;;;25.30;23.70;;;6.60;82.00;;;;;;5095357;28;20235;-71
2022/03/15 05:28:13;;;;;;;25.10;23.08;;;6.70;81.40;;;;;;5095466;28;20281;-71
2022/03/15 05:30:41;;;;;;;26.83;25.02;;;6.80;81.30;;;;;;5095261;28;20195;-71
2022/03/15 05:33:08;;;;;;;24.23;22.80;;;6.80;81.00;;;;;;5095158;28;20227;-71
2022/03/15 05:35:35;;;;;;;27.17;25.10;;;6.80;80.90;;;;;;5095327;28;20601;-70
2022/03/15 05:38:02;;;;;;;25.92;24.52;;;6.80;80.80;;;;;;5095135;28;20206;-71
2022/03/15 05:40:29;;;;;;;25.63;24.13;;;6.80;81.00;;;;;;5095067;28;20202;-71
2022/03/15 05:42:56;;;;;;;24.35;22.75;;;6.70;81.20;;;;;;5095196;28;20810;-71
2022/03/15 05:45:24;;;;;;;27.00;25.25;;;6.80;81.10;;;;;;5094948;28;20625;-71
2022/03/15 05:47:53;;;;;;;27.85;26.17;;;6.80;81.10;;;;;;5094600;28;20196;-71
2022/03/15 05:50:20;;;;;;;26.77;25.08;;;6.70;81.50;;;;;;5094718;28;20747;-71
2022/03/15 05:52:47;;;;;;;25.23;23.52;;;6.70;81.70;;;;;;5094696;28;20224;-70
2022/03/15 05:55:13;;;;;;;25.80;24.20;;;6.70;81.90;;;;;;5095015;28;20580;-70
2022/03/15 05:57:42;;;;;;;25.25;23.55;;;6.70;82.00;;;;;;5094913;28;20271;-70
2022/03/15 06:00:10;;;;;;;25.13;23.52;;;6.70;81.80;;;;;;5093316;28;20726;-70
2022/03/15 06:02:38;;;;;;;26.08;23.98;;;6.70;81.80;;;;;;5094671;28;20215;-70
2022/03/15 06:05:07;;;;;;;27.58;25.60;;;6.70;81.50;;;;;;5094607;28;20200;-70
2022/03/15 06:07:34;;;;;;;23.95;22.35;;;6.70;81.40;;;;;;5094760;28;20204;-70
2022/03/15 06:10:01;;;;;;;24.05;22.45;;;6.80;81.20;;;;;;5095181;28;20196;-70
2022/03/15 06:12:28;;;;;;;26.92;25.02;;;6.80;81.00;;;;;;5094949;28;20215;-70
2022/03/15 06:14:55;;;;;;;24.05;22.63;;;6.90;80.80;;;;;;5095250;28;20202;-70
2022/03/15 06:17:22;;;;;;;26.88;24.92;;;7.00;80.70;;;;;;5095096;28;20238;-70
2022/03/15 06:19:48;;;;;;;26.13;24.42;;;6.90;80.60;;;;;;5094847;28;20207;-70
2022/03/15 06:22:17;;;;;;;26.25;24.40;;;7.00;80.70;;;;;;5094759;28;20433;-70
2022/03/15 06:24:44;;;;;;;24.52;22.92;;;7.00;80.60;;;;;;5094834;28;20196;-70
2022/03/15 06:27:11;;;;;;;25.13;23.40;;;7.10;80.50;;;;;;5094656;28;20302;-70
2022/03/15 06:29:38;;;;;;;24.45;22.85;;;7.10;80.10;;;;;;5094516;28;20192;-70
2022/03/15 06:32:05;;;;;;;26.00;24.20;;;7.20;79.90;;;;;;5094265;28;20305;-70
2022/03/15 06:34:32;;;;;;;25.48;23.73;;;7.30;79.60;;;;;;5094146;28;20680;-71
2022/03/15 06:36:59;;;;;;;24.30;22.60;;;7.40;79.40;;;;;;5094016;28;20196;-71
2022/03/15 06:39:27;;;;;;;27.52;25.42;;;7.40;79.20;;;;;;5094091;28;20657;-71
2022/03/15 06:41:54;;;;;;;25.23;23.73;;;7.60;79.10;;;;;;5094324;28;20309;-71
2022/03/15 06:44:21;;;;;;;26.58;24.85;;;7.60;78.60;;;;;;5093968;28;20315;-71
2022/03/15 06:46:48;;;;;;;26.95;25.08;;;7.80;78.10;;;;;;5094086;28;20254;-71
2022/03/15 06:49:15;;;;;;;26.95;24.85;;;7.90;77.70;;;;;;5093864;28;20199;-71
2022/03/15 06:51:42;;;;;;;25.60;23.55;;;8.00;77.30;;;;;;5093750;28;20215;-71
2022/03/15 06:54:08;;;;;;;25.67;23.73;;;8.20;76.60;;;;;;5093796;28;20193;-71
2022/03/15 06:56:39;;;;;;;26.02;24.23;;;8.30;76.10;;;;;;5093729;28;20200;-71
2022/03/15 06:59:06;;;;;;;25.58;23.85;;;8.40;75.70;;;;;;5093772;28;20196;-71
2022/03/15 07:01:34;;;;;;;27.63;25.40;;;8.60;75.00;;;;;;5093555;28;20693;-71
2022/03/15 07:04:00;;;;;;;26.73;24.90;;;8.60;74.90;;;;;;5093593;28;20200;-71
2022/03/15 07:06:27;;;;;;;25.48;23.88;;;8.70;74.60;;;;;;5093343;28;20683;-71
2022/03/15 07:08:54;;;;;;;25.55;23.85;;;8.70;74.30;;;;;;5093708;28;20279;-71
2022/03/15 07:11:21;;;;;;;28.92;26.25;;;8.60;73.90;;;;;;5092916;28;20247;-71
2022/03/15 07:13:49;;;;;;;27.13;25.27;;;8.60;74.50;;;;;;5093609;28;20284;-71
2022/03/15 07:16:16;;;;;;;26.52;24.40;;;8.60;74.40;;;;;;5093603;28;20196;-71
2022/03/15 07:18:43;;;;;;;26.35;24.83;;;8.80;74.10;;;;;;5093311;28;20196;-71
2022/03/15 07:21:10;;;;;;;29.33;27.17;;;8.80;74.00;;;;;;5093095;28;20196;-71
2022/03/15 07:23:37;;;;;;;26.10;24.08;;;9.00;73.80;;;;;;5093340;28;20728;-71
2022/03/15 07:26:04;;;;;;;26.98;25.27;;;9.00;73.50;;;;;;5093217;28;20220;-71
2022/03/15 07:28:31;;;;;;;26.75;24.73;;;9.00;73.40;;;;;;5093239;28;20206;-71
2022/03/15 07:30:59;;;;;;;26.23;24.63;;;9.20;73.00;;;;;;5092996;28;20203;-71
2022/03/15 07:33:26;;;;;;;25.88;24.10;;;9.30;72.50;;;;;;5093231;28;20581;-71
2022/03/15 07:35:53;;;;;;;26.42;24.70;;;9.30;72.30;;;;;;5093200;28;20288;-71
2022/03/15 07:38:20;;;;;;;25.88;24.27;;;9.40;71.90;;;;;;5093267;28;20209;-71
2022/03/15 07:40:49;;;;;;;24.88;23.13;;;9.60;71.60;;;;;;5093247;28;20290;-71
2022/03/15 07:43:16;;;;;;;25.60;23.80;;;9.60;71.10;;;;;;5093315;28;20963;-71
2022/03/15 07:45:43;;;;;;;26.33;24.40;;;9.70;71.10;;;;;;5093374;28;20202;-71
2022/03/15 07:48:11;;;;;;;25.65;23.70;;;9.70;70.90;;;;;;5097204;28;20761;-70
2022/03/15 07:50:38;;;;;;;24.98;23.48;;;9.70;70.60;;;;;;5096908;28;20205;-70
2022/03/15 07:53:05;;;;;;;27.02;24.83;;;9.70;70.60;;;;;;5097597;28;20251;-70
2022/03/15 07:55:32;;;;;;;27.20;25.40;;;9.70;70.70;;;;;;5098227;28;20534;-70
2022/03/15 07:57:59;;;;;;;26.15;24.27;;;9.70;71.10;;;;;;5098959;28;20195;-71
2022/03/15 08:00:26;;;;;;;27.50;25.17;;;9.60;71.40;;;;;;5098492;28;20696;-70
2022/03/15 08:02:53;;;;;;;27.83;25.80;;;9.60;71.20;;;;;;5096106;28;20307;-71
2022/03/15 08:05:22;;;;;;;27.85;26.13;;;9.70;71.20;;;;;;5093608;28;20200;-71
2022/03/15 08:07:49;;;;;;;25.52;23.92;;;9.90;70.70;;;;;;5093341;28;20219;-71
2022/03/15 08:10:16;;;;;;;27.63;25.45;;;10.10;70.10;;;;;;5093155;28;20286;-71
2022/03/15 08:12:43;;;;;;;25.85;23.63;;;10.20;69.70;;;;;;5093338;28;20215;-71
2022/03/15 08:15:12;;;;;;;28.02;25.88;;;10.30;69.10;;;;;;5093023;28;20289;-71
2022/03/15 08:17:39;;;;;;;27.63;25.63;;;10.50;68.30;;;;;;5092902;28;20385;-71
2022/03/15 08:20:08;;;;;;;25.70;24.17;;;10.60;67.90;;;;;;5093137;28;20534;-71
2022/03/15 08:22:37;;;;;;;24.90;23.20;;;10.70;67.60;;;;;;5092596;28;20832;-71
2022/03/15 08:25:04;;;;;;;27.60;25.60;;;10.90;68.20;;;;;;5096256;28;20531;-71
2022/03/15 08:27:32;;;;;;;26.37;24.77;;;11.00;66.80;;;;;;5096728;28;20477;-71
2022/03/15 08:29:59;;;;;;;26.43;24.60;;;11.20;66.00;;;;;;5096334;28;20460;-71
2022/03/15 08:32:26;;;;;;;28.37;26.37;;;11.30;66.60;;;;;;5096587;28;20496;-71
2022/03/15 08:34:53;;;;;;;27.97;26.37;;;11.50;65.60;;;;;;5096394;28;20438;-71
2022/03/15 08:37:20;;;;;;;26.30;24.70;;;11.70;64.70;;;;;;5096267;28;20496;-71
2022/03/15 08:39:48;;;;;;;27.20;25.20;;;11.80;64.90;;;;;;5096226;28;20458;-71
2022/03/15 08:42:15;;;;;;;26.00;24.23;;;12.00;64.20;;;;;;5096448;28;20552;-71
2022/03/15 08:44:42;;;;;;;25.50;24.00;;;12.10;63.60;;;;;;5096243;28;20459;-72
2022/03/15 08:47:09;;;;;;;26.03;24.77;;;12.10;62.80;;;;;;5096060;28;20497;-72
2022/03/15 08:49:37;;;;;;;26.43;24.10;;;12.20;62.70;;;;;;5096185;28;20494;-71
2022/03/15 08:52:07;;;;;;;26.33;24.47;;;12.40;62.70;;;;;;5095897;28;20474;-72
2022/03/15 08:54:34;;;;;;;24.93;23.33;;;12.60;62.20;;;;;;5096132;28;20466;-71
2022/03/15 08:57:03;;;;;;;25.67;24.07;;;12.60;61.90;;;;;;5096119;28;20448;-72
2022/03/15 08:59:30;;;;;;;25.53;23.90;;;12.70;61.60;;;;;;5095818;28;20548;-72
2022/03/15 09:01:57;;;;;;;25.37;23.77;;;12.80;61.40;;;;;;5095903;28;20554;-72
2022/03/15 09:04:25;;;;;;;25.20;23.60;;;12.80;60.90;;;;;;5095858;28;20451;-71
2022/03/15 09:06:52;;;;;;;24.03;22.67;;;12.80;61.80;;;;;;5095666;28;20936;-72
2022/03/15 09:09:21;;;;;;;25.77;24.23;;;12.80;61.30;;;;;;5095715;28;20480;-72
2022/03/15 09:11:49;;;;;;;25.20;23.53;;;12.80;61.30;;;;;;5095882;28;20823;-71
2022/03/15 09:14:17;;;;;;;25.97;24.30;;;12.80;61.70;;;;;;5096009;28;20457;-71
2022/03/15 09:16:44;;;;;;;28.40;26.50;;;12.80;62.60;;;;;;5095641;28;20543;-71
2022/03/15 09:19:11;;;;;;;26.63;24.93;;;12.80;63.90;;;;;;5095392;28;20462;-71
2022/03/15 09:21:38;;;;;;;25.20;23.60;;;12.80;65.10;;;;;;5095576;28;20936;-71
2022/03/15 09:24:05;;;;;;;27.63;26.30;;;12.70;66.20;;;;;;5095620;28;20463;-71
2022/03/15 09:26:32;;;;;;;27.17;25.73;;;12.70;67.10;;;;;;5095430;28;20890;-71
2022/03/15 09:29:00;;;;;;;23.90;22.60;;;12.70;68.00;;;;;;5095454;28;20456;-71
2022/03/15 09:31:28;;;;;;;24.07;22.67;;;12.80;68.70;;;;;;5095293;28;20477;-71
2022/03/15 09:33:55;;;;;;;25.13;23.73;;;12.80;69.00;;;;;;5095129;28;20553;-71
2022/03/15 09:36:23;;;;;;;24.87;23.47;;;12.90;69.60;;;;;;5095411;28;20544;-71
2022/03/15 09:38:50;;;;;;;25.30;23.80;;;12.80;70.90;;;;;;5095307;28;20551;-71
2022/03/15 09:41:18;;;;;;;25.50;24.00;;;12.80;71.00;;;;;;5095054;28;20457;-71
2022/03/15 09:43:47;;;;;;;27.10;25.70;;;12.80;71.40;;;;;;5095474;28;20848;-71
2022/03/15 09:46:15;;;;;;;24.90;23.43;;;12.80;71.70;;;;;;5095028;28;20991;-71
2022/03/15 09:48:45;;;;;;;27.33;25.33;;;12.70;72.60;;;;;;5094874;28;20805;-72
2022/03/15 09:51:14;;;;;;;25.90;24.40;;;12.70;72.40;;;;;;5094844;28;20462;-71
2022/03/15 09:53:43;;;;;;;25.10;23.50;;;12.70;72.70;;;;;;5094843;28;20456;-72
2022/03/15 09:56:11;;;;;;;25.13;23.53;;;12.80;73.10;;;;;;5094849;28;20453;-71
2022/03/15 09:58:38;;;;;;;24.93;23.60;;;12.80;73.20;;;;;;5094708;28;20475;-72
2022/03/15 10:01:05;;;;;;;27.40;26.07;;;12.70;73.00;;;;;;5094648;28;20456;-72
2022/03/15 10:03:31;;;;;;;24.50;23.30;;;12.70;73.50;;;;;;5094807;28;20477;-72
2022/03/15 10:06:00;;;;;;;25.10;23.70;;;12.60;73.80;;;;;;5095062;28;20454;-72
2022/03/15 10:08:27;;;;;;;25.13;23.63;;;12.60;73.60;;;;;;5094627;28;20484;-72
2022/03/15 10:10:54;;;;;;;26.40;24.90;;;12.50;73.30;;;;;;5094494;28;20448;-72
2022/03/15 10:13:21;;;;;;;24.70;23.13;;;12.40;73.70;;;;;;5094714;28;20472;-71
2022/03/15 10:15:53;;;;;;;27.20;25.90;;;12.30;73.90;;;;;;5094468;28;20952;-72
2022/03/15 10:18:21;;;;;;;25.23;23.73;;;12.20;74.50;;;;;;5094614;28;20898;-72
2022/03/15 10:20:49;;;;;;;28.27;26.43;;;12.10;74.90;;;;;;5094413;28;20501;-72
2022/03/15 10:23:19;;;;;;;27.77;26.30;;;12.10;75.00;;;;;;5094220;28;20471;-72
2022/03/15 10:25:49;;;;;;;26.10;24.67;;;12.20;75.00;;;;;;5094302;28;20459;-71
2022/03/15 10:28:17;;;;;;;26.00;24.40;;;12.20;74.70;;;;;;5094167;28;20507;-72
2022/03/15 10:30:45;;;;;;;24.93;23.40;;;12.20;74.60;;;;;;5094207;28;20485;-71
2022/03/15 10:33:13;;;;;;;24.90;23.37;;;12.30;74.40;;;;;;5094222;28;20536;-72
2022/03/15 10:35:42;;;;;;;25.70;23.90;;;12.30;74.40;;;;;;5094085;28;20459;-72
2022/03/15 10:38:10;;;;;;;25.07;23.57;;;12.20;74.60;;;;;;5093986;28;20452;-71
2022/03/15 10:40:40;;;;;;;23.90;22.53;;;12.10;75.10;;;;;;5093920;28;20450;-72
2022/03/15 10:43:09;;;;;;;24.97;23.27;;;12.00;75.40;;;;;;5094136;28;20511;-72
2022/03/15 10:45:37;;;;;;;25.33;23.83;;;12.10;75.00;;;;;;5093775;28;20453;-71
2022/03/15 10:48:15;;;;;;;25.70;24.10;;;12.10;74.90;;;;;;5093285;28;20476;-72
2022/03/15 10:50:51;;;;;;;25.40;23.77;;;12.20;74.70;;;;;;5093554;28;20450;-72
2022/03/15 10:53:19;;;;;;;22.97;21.67;;;12.30;74.50;;;;;;5093569;28;20487;-72
2022/03/15 10:55:47;;;;;;;26.63;24.77;;;12.30;74.70;;;;;;5093711;28;20457;-72
2022/03/15 10:58:21;;;;;;;26.90;25.10;;;12.30;74.70;;;;;;5093750;28;20523;-71
2022/03/15 11:00:53;;;;;;;26.17;24.67;;;12.40;74.90;;;;;;5093533;28;20679;-71
2022/03/15 11:03:25;;;;;;;22.83;21.60;;;12.40;75.20;;;;;;5093505;28;20538;-72
2022/03/15 11:05:57;;;;;;;26.27;24.80;;;12.50;75.90;;;;;;5093597;28;20452;-72
2022/03/15 11:08:24;;;;;;;25.27;23.87;;;12.50;75.80;;;;;;5093382;28;20473;-72
2022/03/15 11:10:54;;;;;;;26.57;24.97;;;12.60;76.00;;;;;;5093352;28;20455;-72
2022/03/15 11:13:28;;;;;;;27.30;25.70;;;12.40;76.30;;;;;;5093340;28;20472;-71
2022/03/15 11:15:57;;;;;;;27.10;25.67;;;12.40;76.60;;;;;;5093534;28;20472;-71
2022/03/15 11:18:28;;;;;;;27.20;25.50;;;12.40;76.80;;;;;;5093411;28;20869;-71
2022/03/15 11:20:58;;;;;;;28.73;27.03;;;12.40;77.20;;;;;;5093436;28;20456;-72
2022/03/15 11:23:25;;;;;;;26.10;24.60;;;12.40;77.00;;;;;;5093254;28;20659;-72
2022/03/15 11:25:58;;;;;;;25.57;24.07;;;12.40;77.10;;;;;;5093198;28;20455;-71
2022/03/15 11:28:27;;;;;;;24.77;23.27;;;12.40;77.10;;;;;;5093050;28;20482;-72
2022/03/15 11:30:56;;;;;;;25.43;23.87;;;12.50;77.30;;;;;;5093055;28;20548;-72
2022/03/15 11:33:23;;;;;;;25.00;23.50;;;12.40;77.90;;;;;;5093176;28;20554;-72
2022/03/15 11:35:51;;;;;;;26.43;24.93;;;12.30;78.10;;;;;;5093102;28;20471;-72
2022/03/15 11:38:18;;;;;;;25.93;24.43;;;12.30;78.40;;;;;;5093117;28;20830;-72
2022/03/15 11:40:46;;;;;;;25.73;24.13;;;12.30;78.60;;;;;;5092857;28;20454;-72
2022/03/15 11:43:35;;;;;;;27.87;26.10;;;12.30;78.50;;;;;;5093038;28;20541;-72
2022/03/15 11:46:04;;;;;;;28.77;26.97;;;12.20;79.00;;;;;;5092989;28;20509;-72
2022/03/15 11:48:44;;;;;;;28.80;26.90;;;12.20;79.20;;;;;;5092513;28;21014;-72
2022/03/15 11:51:23;;;;;;;26.07;24.57;;;12.20;79.60;;;;;;5092709;28;20473;-72
2022/03/15 11:53:58;;;;;;;25.20;23.60;;;12.20;79.70;;;;;;5092746;28;20456;-72
2022/03/15 11:56:37;;;;;;;26.40;24.70;;;12.10;80.10;;;;;;5092838;28;21022;-72
2022/03/15 11:59:05;;;;;;;28.80;26.97;;;12.10;80.60;;;;;;5092715;28;20505;-72
2022/03/15 12:01:43;;;;;;;26.87;25.27;;;12.10;80.20;;;;;;5092450;28;20475;-72
2022/03/15 12:04:11;;;;;;;25.40;23.80;;;12.10;80.00;;;;;;5092835;28;20489;-71
2022/03/15 12:06:38;;;;;;;26.37;24.53;;;12.10;80.50;;;;;;5092545;28;20457;-72
2022/03/15 12:09:12;;;;;;;25.97;24.47;;;12.00;80.70;;;;;;5092700;28;20491;-72
2022/03/15 12:11:41;;;;;;;27.97;26.27;;;12.00;80.70;;;;;;5092664;28;20469;-71
2022/03/15 12:14:12;;;;;;;29.97;28.10;;;12.00;80.40;;;;;;5092679;28;20458;-72
2022/03/15 12:16:42;;;;;;;28.47;26.50;;;12.10;80.50;;;;;;5092725;28;20515;-72
2022/03/15 12:19:27;;;;;;;33.27;30.60;;;12.10;80.40;;;;;;5092443;28;20945;-72
2022/03/15 12:21:55;;;;;;;29.67;27.57;;;12.10;80.80;;;;;;5092652;28;20532;-71
2022/03/15 12:24:31;;;;;;;27.67;25.97;;;12.10;80.70;;;;;;5092453;28;20967;-72
2022/03/15 12:27:00;;;;;;;27.77;25.83;;;12.10;80.50;;;;;;5092474;28;20468;-72
2022/03/15 12:29:29;;;;;;;27.77;25.97;;;12.10;80.40;;;;;;5092249;28;20498;-72
2022/03/15 12:31:57;;;;;;;30.83;28.83;;;12.00;80.40;;;;;;5092512;28;20992;-72
2022/03/15 12:34:26;;;;;;;27.67;25.73;;;11.90;80.40;;;;;;5092447;28;20457;-72
2022/03/15 12:36:58;;;;;;;28.10;26.30;;;11.80;80.60;;;;;;5092411;28;20956;-71
2022/03/15 12:39:27;;;;;;;30.87;28.63;;;11.70;81.00;;;;;;5092217;28;20447;-72